CheckWX is a tool to help pilots better visualize weather data.  It is not intended as a substitute for an official pre-flight weather briefing.

06:14:58 UTC

KMVY METAR
Martha's Vineyard Airport
Vineyard Haven, Massachusetts, USA
Current

12 mins ago

KMVY 230603Z AUTO 01006KT 3SM BR OVC003 08/08 A2987 RMK AO2 T00830078
Observed
Apr-23 @ 06:03 UTC
Wind
  • 010° at 6 KTS
Visibility
3 SM
Flight Rules
LIFR
Conditions
Mist
Cloud Levels
  • Overcast at 300' AGL
Temperature
C / 46°F
Dewpoint
C / 46°F
Humidity
100%
Altimeter
29.87" Hg
Pressure
1011.52 hPa
Previous

22 mins ago

KMVY 230553Z AUTO 03006KT 2 1/2SM BR OVC003 08/08 A2987 RMK AO2 RAB23E33 SLP114 P0000 60000 T00830078 10094 20083 58011
Observed
Apr-23 @ 05:53 UTC
Wind
  • 030° at 6 KTS
Visibility
2 1/2 SM
Flight Rules
LIFR
Conditions
Mist
Cloud Levels
  • Overcast at 300' AGL
Temperature
C / 46°F
Dewpoint
C / 46°F
Humidity
100%
Altimeter
29.87" Hg
Pressure
1011.52 hPa
Current Rain
0.01"
Previous

40 mins ago

KMVY 230535Z AUTO 03005KT 2 1/2SM BR OVC002 08/08 A2988 RMK AO2 RAB23E33 P0000 T00830078
Observed
Apr-23 @ 05:35 UTC
Wind
  • 030° at 5 KTS
Visibility
2 1/2 SM
Flight Rules
LIFR
Conditions
Mist
Cloud Levels
  • Overcast at 200' AGL
Temperature
C / 46°F
Dewpoint
C / 46°F
Humidity
100%
Altimeter
29.88" Hg
Pressure
1011.82 hPa
Current Rain
0.01"